Time;durP1;ratioP1;P1;durP2;ratioP2;P2;SDS_P1;SDS_P2;PMS_P1;PMS_P2;Temp;Humidity;BMP_temperature;BMP_pressure;BME280_temperature;BME280_humidity;BME280_pressure;Samples;Min_cycle;Max_cycle;Signal;HPM_P1;HPM_P2
2022/07/23 00:01:17;;;;;;;1.57;1.07;;;;;;;15.53;93.11;100150.81;5000285;28;20289;-58
2022/07/23 00:03:51;;;;;;;2.97;1.10;;;;;;;15.47;92.98;100145.75;5009277;28;20641;-59
2022/07/23 00:06:22;;;;;;;3.73;1.10;;;;;;;15.44;93.50;100148.50;5019829;28;20466;-59
2022/07/23 00:08:55;;;;;;;10.90;1.10;;;;;;;15.41;93.51;100156.53;5019683;28;20455;-58
2022/07/23 00:11:25;;;;;;;9.83;1.00;;;;;;;15.35;93.83;100145.38;5019798;28;20273;-58
2022/07/23 00:13:57;;;;;;;3.80;1.00;;;;;;;15.32;94.51;100146.34;5019823;28;20312;-60
2022/07/23 00:16:28;;;;;;;3.43;1.07;;;;;;;15.33;94.75;100145.44;5020060;28;20281;-59
2022/07/23 00:19:01;;;;;;;5.20;1.07;;;;;;;15.33;94.68;100142.81;5020076;28;20277;-58
2022/07/23 00:21:32;;;;;;;5.90;1.20;;;;;;;15.40;95.02;100144.31;5019746;28;20281;-59
2022/07/23 00:24:04;;;;;;;0.90;0.80;;;;;;;15.42;94.05;100142.44;5019673;28;20344;-57
2022/07/23 00:26:35;;;;;;;4.27;0.90;;;;;;;15.48;94.20;100147.50;5019612;28;20307;-59
2022/07/23 00:29:06;;;;;;;3.27;0.90;;;;;;;15.48;94.02;100152.75;5019395;28;20558;-59
2022/07/23 00:31:36;;;;;;;2.90;1.00;;;;;;;15.41;93.27;100153.91;5019402;28;20288;-60
2022/07/23 00:34:07;;;;;;;2.77;0.80;;;;;;;15.40;93.85;100154.84;5019375;28;20269;-60
2022/07/23 00:36:37;;;;;;;3.47;0.90;;;;;;;15.42;94.28;100152.97;5019483;28;20319;-57
2022/07/23 00:39:10;;;;;;;2.17;0.80;;;;;;;15.47;94.63;100153.66;5019403;28;20360;-57
2022/07/23 00:41:40;;;;;;;10.50;0.80;;;;;;;15.40;94.63;100141.66;5019484;28;20498;-58
2022/07/23 00:44:22;;;;;;;1.20;0.80;;;;;;;15.45;94.45;100142.34;5019364;28;20360;-59
2022/07/23 00:46:54;;;;;;;2.77;0.73;;;;;;;15.41;94.57;100146.00;5019244;28;20689;-59
2022/07/23 00:49:26;;;;;;;4.10;0.60;;;;;;;15.45;94.80;100147.63;5012752;28;21363;-58
2022/07/23 00:51:57;;;;;;;3.13;0.90;;;;;;;15.43;93.98;100138.91;5006498;28;20303;-60
2022/07/23 00:54:30;;;;;;;0.80;0.60;;;;;;;15.49;94.90;100149.19;5008202;28;20322;-60
2022/07/23 00:57:01;;;;;;;4.87;0.70;;;;;;;15.44;93.88;100148.50;5015434;28;20284;-59
2022/07/23 00:59:31;;;;;;;7.60;1.33;;;;;;;15.40;94.13;100144.31;5025935;28;20291;-58
2022/07/23 01:02:02;;;;;;;5.43;0.80;;;;;;;15.36;94.69;100144.47;5025493;28;20287;-59
2022/07/23 01:04:32;;;;;;;4.10;1.00;;;;;;;15.30;94.78;100153.44;5025123;28;20288;-58
2022/07/23 01:07:03;;;;;;;4.43;0.90;;;;;;;15.33;95.06;100142.81;5022183;28;20594;-59
2022/07/23 01:09:36;;;;;;;8.93;1.30;;;;;;;15.42;95.30;100150.34;5024166;28;20289;-58
2022/07/23 01:12:07;;;;;;;0.93;0.70;;;;;;;15.46;95.16;100144.06;5024876;28;20288;-58
2022/07/23 01:14:38;;;;;;;3.60;0.87;;;;;;;15.51;95.11;100149.16;5022985;28;20320;-58
2022/07/23 01:17:08;;;;;;;3.13;1.40;;;;;;;15.49;94.49;100143.06;5022838;28;20336;-59
2022/07/23 01:19:39;;;;;;;1.17;0.83;;;;;;;15.68;94.99;100143.22;5024347;28;20298;-59
2022/07/23 01:22:11;;;;;;;4.97;0.90;;;;;;;16.02;94.52;100147.16;5019821;28;20309;-58
2022/07/23 01:24:43;;;;;;;6.60;1.30;;;;;;;16.24;92.33;100142.72;5024301;28;20564;-59
2022/07/23 01:27:14;;;;;;;2.90;0.70;;;;;;;16.48;92.48;100145.28;5023393;28;20633;-60
2022/07/23 01:29:45;;;;;;;4.40;1.10;;;;;;;16.69;90.68;100149.59;5024605;28;20280;-58
2022/07/23 01:32:15;;;;;;;0.80;0.60;;;;;;;16.66;89.45;100139.19;5023329;28;20476;-59
2022/07/23 01:34:46;;;;;;;1.70;0.80;;;;;;;16.80;88.93;100136.84;5024690;28;20299;-58
2022/07/23 01:37:16;;;;;;;9.57;0.90;;;;;;;16.97;89.12;100138.75;5023096;28;20319;-58
2022/07/23 01:39:48;;;;;;;0.93;0.73;;;;;;;17.12;86.93;100137.16;5023553;28;20343;-58
2022/07/23 01:42:19;;;;;;;1.10;0.67;;;;;;;17.22;87.63;100127.03;5021583;28;20304;-59
2022/07/23 01:44:50;;;;;;;0.70;0.50;;;;;;;17.16;86.25;100138.75;5022531;28;20517;-59
2022/07/23 01:47:21;;;;;;;0.50;0.50;;;;;;;17.05;86.68;100125.19;5022639;28;20319;-59
2022/07/23 01:49:51;;;;;;;1.83;0.70;;;;;;;16.99;86.80;100128.09;5023323;28;20307;-58
2022/07/23 01:52:22;;;;;;;2.80;0.80;;;;;;;16.98;87.43;100129.03;5024688;28;20276;-58
2022/07/23 01:54:54;;;;;;;3.00;0.70;;;;;;;17.13;87.08;100133.63;5024854;28;20276;-60
2022/07/23 01:57:24;;;;;;;1.77;0.70;;;;;;;17.28;87.60;100137.34;5021870;28;20363;-60
2022/07/23 01:59:55;;;;;;;3.03;0.50;;;;;;;17.57;86.52;100128.06;5023288;28;20300;-58
2022/07/23 02:02:26;;;;;;;7.43;0.80;;;;;;;17.60;85.94;100132.34;5024366;28;20434;-59
2022/07/23 02:04:56;;;;;;;0.80;0.50;;;;;;;17.50;84.99;100137.22;5027362;28;20810;-60
2022/07/23 02:07:27;;;;;;;3.97;0.60;;;;;;;17.31;85.37;100121.34;5027963;28;20299;-59
2022/07/23 02:10:03;;;;;;;1.60;0.40;;;;;;;17.37;84.93;100125.47;5028594;28;20283;-57
2022/07/23 02:12:34;;;;;;;7.27;1.07;;;;;;;17.38;85.94;100128.06;5028927;28;20281;-59
2022/07/23 02:15:05;;;;;;;4.97;0.70;;;;;;;17.44;85.48;100126.91;5028748;28;20332;-58
2022/07/23 02:17:38;;;;;;;3.53;0.60;;;;;;;17.48;85.72;100128.50;5026580;28;20342;-60
2022/07/23 02:20:11;;;;;;;2.10;0.80;;;;;;;17.45;84.54;100131.28;5026451;28;20299;-59
2022/07/23 02:22:42;;;;;;;5.20;0.77;;;;;;;17.35;85.45;100122.06;5028587;28;20276;-59
2022/07/23 02:25:15;;;;;;;7.73;0.90;;;;;;;17.30;85.33;100139.88;5028261;28;20285;-58
2022/07/23 02:27:45;;;;;;;7.33;0.97;;;;;;;17.37;85.35;100120.19;5027961;28;20327;-57
2022/07/23 02:30:16;;;;;;;1.20;0.70;;;;;;;17.60;85.55;100125.28;5031623;28;20302;-59
2022/07/23 02:32:46;;;;;;;4.73;0.80;;;;;;;17.83;85.00;100125.97;5039772;28;20288;-60
2022/07/23 02:35:17;;;;;;;1.20;0.80;;;;;;;17.88;83.44;100137.19;5039470;28;20280;-59
2022/07/23 02:37:47;;;;;;;2.17;0.80;;;;;;;17.77;84.05;100128.88;5000787;28;20422;-58
2022/07/23 02:40:21;;;;;;;0.60;0.50;;;;;;;17.68;83.08;100131.03;5000805;28;20497;-60
2022/07/23 02:42:52;;;;;;;1.40;0.80;;;;;;;17.66;84.22;100127.59;5000808;28;20269;-58
2022/07/23 02:45:22;;;;;;;0.80;0.70;;;;;;;17.80;83.59;100123.50;5000891;28;20296;-59
2022/07/23 02:47:53;;;;;;;2.80;0.70;;;;;;;17.75;83.19;100120.19;5001693;28;20308;-60
2022/07/23 02:50:23;;;;;;;2.50;0.63;;;;;;;17.59;84.21;100123.53;5001738;28;20474;-60
2022/07/23 02:52:54;;;;;;;8.60;0.80;;;;;;;17.52;84.80;100114.19;5013406;28;20304;-59
2022/07/23 02:55:27;;;;;;;2.87;0.80;;;;;;;17.56;84.73;100105.19;5034661;28;20295;-60
2022/07/23 02:57:57;;;;;;;16.57;1.50;;;;;;;17.72;84.97;100115.03;5039772;28;20436;-60
2022/07/23 03:00:28;;;;;;;7.90;2.30;;;;;;;17.97;84.09;100110.31;5029445;28;20564;-59
2022/07/23 03:02:58;;;;;;;3.63;1.93;;;;;;;18.02;81.08;100105.66;5027334;28;20285;-57
2022/07/23 03:05:29;;;;;;;8.90;0.90;;;;;;;17.95;80.18;100106.88;5026488;28;20289;-59
2022/07/23 03:07:59;;;;;;;6.93;1.53;;;;;;;17.91;80.27;100100.03;5018439;28;20628;-57
2022/07/23 03:10:32;;;;;;;0.43;0.40;;;;;;;17.80;80.25;100097.06;5027729;28;20347;-59
2022/07/23 03:13:02;;;;;;;2.90;0.40;;;;;;;17.70;80.79;100101.91;5039734;28;20290;-58
2022/07/23 03:15:33;;;;;;;2.97;0.43;;;;;;;17.77;81.30;100097.16;5038694;28;20468;-58
2022/07/23 03:21:49;;;;;;;2.30;0.60;;;;;;;18.26;80.08;100100.03;5024238;28;20264;-58
2022/07/23 03:24:20;;;;;;;4.23;0.60;;;;;;;18.37;78.86;100086.25;5019470;28;20289;-58
2022/07/23 03:26:52;;;;;;;5.37;0.60;;;;;;;18.32;79.00;100094.44;5009091;28;20301;-58
2022/07/23 03:29:23;;;;;;;3.07;1.10;;;;;;;18.20;78.48;100079.22;5015074;28;20279;-58
2022/07/23 03:31:53;;;;;;;7.07;1.00;;;;;;;18.29;79.04;100084.00;5014742;28;20565;-58
2022/07/23 03:34:24;;;;;;;8.60;1.10;;;;;;;18.59;79.58;100076.28;5020841;28;20281;-59
2022/07/23 03:36:54;;;;;;;4.93;0.90;;;;;;;18.62;77.00;100088.50;5019354;28;20277;-59
2022/07/23 03:39:25;;;;;;;5.10;0.50;;;;;;;18.45;76.36;100084.09;5009781;28;20328;-60
2022/07/23 03:41:57;;;;;;;6.47;0.77;;;;;;;18.33;78.37;100080.28;5015218;28;20490;-60
2022/07/23 03:44:28;;;;;;;0.53;0.50;;;;;;;18.32;76.87;100067.97;5003740;28;20293;-58
2022/07/23 03:46:59;;;;;;;4.10;0.60;;;;;;;18.61;76.84;100074.41;5029665;28;20462;-58
2022/07/23 03:52:02;;;;;;;9.80;1.20;;;;;;;18.41;76.41;100078.09;4961264;28;20775;-60
2022/07/23 03:54:33;;;;;;;4.30;0.90;;;;;;;18.38;76.88;100080.06;4958839;28;20804;-57
2022/07/23 03:57:05;;;;;;;4.20;0.90;;;;;;;18.38;77.92;100078.25;4960091;28;20300;-57
2022/07/23 03:59:36;;;;;;;5.90;1.53;;;;;;;18.31;77.48;100076.84;4966523;28;20321;-58
2022/07/23 04:02:06;;;;;;;4.63;1.20;;;;;;;18.40;78.76;100063.16;4965244;28;20302;-58
2022/07/23 04:04:37;;;;;;;3.17;1.13;;;;;;;18.25;78.05;100066.63;4963297;28;20305;-57
2022/07/23 04:07:08;;;;;;;1.77;1.50;;;;;;;18.19;78.78;100061.63;4957793;28;20691;-59
2022/07/23 04:09:40;;;;;;;1.93;0.90;;;;;;;18.03;79.61;100065.03;4963490;28;20305;-58
2022/07/23 04:12:16;;;;;;;1.50;1.00;;;;;;;17.88;80.02;100068.47;4961390;28;20389;-59
2022/07/23 04:14:47;;;;;;;3.00;1.13;;;;;;;17.60;81.56;100069.78;4963895;28;20294;-58
2022/07/23 04:17:17;;;;;;;3.67;0.80;;;;;;;17.44;81.87;100068.78;4963142;28;20304;-57
2022/07/23 04:19:48;;;;;;;9.70;1.33;;;;;;;17.31;83.35;100065.88;4980782;23;20320;-58
2022/07/23 04:22:19;;;;;;;14.63;1.50;;;;;;;17.17;83.61;100060.41;4992254;23;20328;-58
2022/07/23 04:24:50;;;;;;;4.43;2.10;;;;;;;16.96;84.43;100051.69;4983628;28;20747;-58
2022/07/23 04:27:22;;;;;;;2.17;1.13;;;;;;;16.99;84.18;100056.84;4983739;28;20295;-57
2022/07/23 04:29:53;;;;;;;4.07;1.20;;;;;;;16.93;84.56;100036.00;4983870;28;20308;-59
2022/07/23 04:32:24;;;;;;;2.20;0.70;;;;;;;16.88;85.40;100038.00;4983645;28;20282;-59
2022/07/23 04:34:54;;;;;;;7.53;1.03;;;;;;;16.86;85.59;100040.72;4983703;28;20388;-58
2022/07/23 04:37:25;;;;;;;1.10;0.83;;;;;;;16.78;85.70;100037.56;4983984;28;20285;-57
2022/07/23 04:39:56;;;;;;;5.33;0.90;;;;;;;16.75;86.55;100035.91;4983682;28;20293;-58
2022/07/23 04:42:28;;;;;;;4.10;1.07;;;;;;;16.72;86.20;100041.28;4984082;28;20735;-59
2022/07/23 04:44:59;;;;;;;4.10;0.80;;;;;;;16.71;87.32;100047.50;4985663;28;20300;-58
2022/07/23 04:47:30;;;;;;;4.23;0.87;;;;;;;16.63;87.73;100039.09;4986308;28;20355;-58
2022/07/23 04:50:01;;;;;;;2.20;0.90;;;;;;;16.53;87.40;100048.34;4981386;28;20293;-57
2022/07/23 04:52:31;;;;;;;4.80;1.10;;;;;;;16.44;88.01;100048.75;4981387;28;20297;-58
2022/07/23 04:55:02;;;;;;;3.90;0.87;;;;;;;16.33;88.63;100046.56;4982403;28;20289;-57
2022/07/23 05:00:22;;;;;;;2.70;1.00;;;;;;;16.43;88.39;100052.31;5006656;28;20362;-84
2022/07/23 05:02:54;;;;;;;7.10;1.00;;;;;;;16.39;88.37;100036.59;5007503;28;20289;-83
2022/07/23 05:05:25;;;;;;;4.40;0.90;;;;;;;16.45;88.30;100045.16;5007197;28;20304;-85
2022/07/23 05:07:56;;;;;;;5.70;1.40;;;;;;;16.28;89.24;100049.41;5005426;28;20308;-85
2022/07/23 05:10:26;;;;;;;5.30;1.10;;;;;;;16.29;89.62;100051.13;5002992;28;20315;-86
2022/07/23 05:12:57;;;;;;;13.23;1.50;;;;;;;16.13;89.95;100047.44;5001094;28;20281;-87
2022/07/23 05:15:30;;;;;;;8.50;1.40;;;;;;;16.19;89.84;100070.88;5012815;28;20286;-84
2022/07/23 05:18:00;;;;;;;19.53;1.90;;;;;;;16.17;90.34;100062.19;5010463;23;20640;-86
2022/07/23 05:20:31;;;;;;;8.33;1.50;;;;;;;15.95;90.04;100030.63;4997929;28;20364;-86
2022/07/23 05:23:02;;;;;;;5.30;1.33;;;;;;;16.26;90.67;100061.78;4996303;28;20308;-85
2022/07/23 05:25:32;;;;;;;11.80;2.37;;;;;;;16.31;89.96;100054.53;4999290;28;20290;-84
2022/07/23 05:28:03;;;;;;;5.03;1.87;;;;;;;16.39;89.90;100057.69;5344989;23;20632;-86
2022/07/23 05:33:31;;;;;;;3.73;0.90;;;;;;;16.25;89.70;100044.28;5852208;23;20311;-85
2022/07/23 05:36:06;;;;;;;3.70;1.10;;;;;;;16.24;89.99;100053.09;5004493;23;20295;-83
2022/07/23 05:38:36;;;;;;;1.60;0.90;;;;;;;16.31;89.53;100066.88;4943478;29;20533;-83
2022/07/23 05:41:07;;;;;;;10.83;1.27;;;;;;;16.27;89.63;100074.03;4945941;29;20486;-83
2022/07/23 05:43:38;;;;;;;2.57;0.80;;;;;;;16.14;88.57;100067.59;4946922;29;20295;-83
2022/07/23 05:46:09;;;;;;;2.10;0.90;;;;;;;16.10;90.04;100061.59;4945026;29;20290;-83
2022/07/23 05:48:41;;;;;;;1.33;0.97;;;;;;;16.11;90.09;100070.38;4946272;29;20343;-82
2022/07/23 05:51:13;;;;;;;3.77;0.70;;;;;;;15.88;89.12;100072.19;4944577;29;20358;-83
2022/07/23 05:53:47;;;;;;;10.30;1.37;;;;;;;15.88;90.28;100093.25;4946110;29;20402;-83
2022/07/23 05:56:25;;;;;;;8.73;0.90;;;;;;;15.64;91.19;100054.72;4946846;29;20335;-83
2022/07/23 05:58:57;;;;;;;;;;;;;;;15.84;91.37;100081.13;4946987;29;20315;-85
2022/07/23 06:01:28;;;;;;;5.83;1.23;;;;;;;15.85;91.23;100088.13;4946650;29;19925;-85
2022/07/23 06:04:00;;;;;;;8.13;1.10;;;;;;;15.89;91.20;100089.69;4946670;29;20506;-85
2022/07/23 06:06:31;;;;;;;5.07;0.80;;;;;;;15.85;89.84;100081.97;4946753;29;20491;-84
2022/07/23 06:09:02;;;;;;;3.73;1.80;;;;;;;15.76;89.78;100072.69;4946336;29;20372;-85
2022/07/23 06:11:33;;;;;;;5.07;1.40;;;;;;;15.86;90.26;100095.09;4946541;29;20291;-84
2022/07/23 06:16:56;;;;;;;2.10;0.30;;;;;;;15.74;90.07;100090.31;4943864;29;20303;-84
2022/07/23 06:19:29;;;;;;;7.97;0.90;;;;;;;15.60;90.19;100076.81;4943996;28;20296;-84
2022/07/23 06:21:59;;;;;;;3.30;0.63;;;;;;;15.75;90.11;100097.31;4946073;29;20299;-84
2022/07/23 06:24:30;;;;;;;3.13;0.70;;;;;;;15.84;89.73;100094.28;4946218;29;20291;-85
2022/07/23 06:27:01;;;;;;;1.90;0.50;;;;;;;15.86;89.60;100084.56;4946130;29;20622;-84
2022/07/23 06:29:31;;;;;;;8.40;1.20;;;;;;;15.97;89.81;100089.38;4933570;29;20369;-84
2022/07/23 06:32:02;;;;;;;1.17;0.40;;;;;;;15.96;88.87;100085.88;4946371;29;20279;-84
2022/07/23 06:34:34;;;;;;;6.93;1.30;;;;;;;15.99;88.63;100078.78;4946165;29;20292;-84
2022/07/23 06:37:05;;;;;;;14.33;0.83;;;;;;;16.07;87.61;100081.94;4945982;29;20303;-84
2022/07/23 06:39:36;;;;;;;1.03;0.30;;;;;;;16.06;87.84;100086.38;4946090;29;20311;-86
2022/07/23 06:42:14;;;;;;;11.40;0.93;;;;;;;16.18;87.86;100090.28;4946023;29;20298;-84
2022/07/23 06:48:35;;;;;;;1.97;0.50;;;;;;;16.08;86.70;100079.25;4831868;29;20310;-85
2022/07/23 06:51:08;;;;;;;8.87;0.77;;;;;;;15.98;87.34;100077.09;4867518;29;20303;-85
2022/07/23 06:53:39;;;;;;;2.13;0.50;;;;;;;15.43;87.78;99994.09;4875104;29;20349;-86
2022/07/23 06:56:12;;;;;;;2.80;0.50;;;;;;;15.91;88.73;100077.31;4945616;29;20303;-87
2022/07/23 06:58:43;;;;;;;0.77;0.43;;;;;;;15.44;88.46;100030.03;4945578;29;20314;-85
2022/07/23 07:01:14;;;;;;;1.47;0.63;;;;;;;15.63;89.18;100087.25;4949074;29;20291;-84
2022/07/23 07:03:45;;;;;;;2.43;0.80;;;;;;;15.63;89.46;100079.34;4956806;28;20295;-87
2022/07/23 07:06:17;;;;;;;3.67;0.70;;;;;;;15.46;90.14;100083.50;4945559;29;20295;-85
2022/07/23 07:08:48;;;;;;;2.37;0.70;;;;;;;15.37;90.51;100083.84;4945451;29;20303;-85
2022/07/23 07:11:18;;;;;;;4.80;0.70;;;;;;;15.33;90.44;100074.38;4936606;29;20544;-85
2022/07/23 07:13:49;;;;;;;2.50;0.60;;;;;;;15.31;90.60;100076.19;4945439;29;20287;-85
2022/07/23 07:16:20;;;;;;;3.63;1.60;;;;;;;15.33;90.42;100084.91;4945401;29;20292;-85
2022/07/23 07:18:51;;;;;;;2.33;1.73;;;;;;;15.37;90.72;100085.63;4944902;29;20299;-85
2022/07/23 07:21:23;;;;;;;4.37;1.83;;;;;;;15.39;90.79;100073.25;4944986;29;20850;-85
2022/07/23 07:23:54;;;;;;;2.90;1.10;;;;;;;15.47;89.93;100114.16;4944599;29;20371;-88
2022/07/23 07:26:25;;;;;;;4.93;1.00;;;;;;;15.48;90.17;100084.28;4938427;29;20298;-86
2022/07/23 07:28:56;;;;;;;9.30;4.10;;;;;;;15.53;89.78;100094.66;4944680;29;20370;-93
2022/07/23 07:31:27;;;;;;;11.63;1.33;;;;;;;15.47;90.21;100103.63;4944949;29;20307;-85
2022/07/23 07:33:58;;;;;;;0.77;0.70;;;;;;;15.34;90.47;100102.41;4945217;29;20322;-88
2022/07/23 07:36:34;;;;;;;3.73;1.07;;;;;;;15.21;91.41;100103.78;4944847;29;20304;-88
2022/07/23 07:39:10;;;;;;;9.77;1.75;;;;;;;15.06;91.83;100092.06;4944948;29;20299;-87
2022/07/23 07:42:39;;;;;;;;;;;;;;;;;;;;;
2022/07/23 07:45:45;;;;;;;;;;;;;;;;;;;;;
2022/07/23 07:49:23;;;;;;;;;;;;;;;;;;;;;
2022/07/23 07:53:09;;;;;;;;;;;;;;;;;;;;;
2022/07/23 07:56:06;;;;;;;7.93;5.67;;;;;;;14.26;93.01;99978.41;4840940;29;20596;-86
2022/07/23 07:59:11;;;;;;;;;;;;;;;;;;;;;
2022/07/23 08:09:05;;;;;;;10.87;5.37;;;;;;;13.89;94.00;99964.78;4714243;30;20505;-86
2022/07/23 08:15:11;;;;;;;14.70;2.28;;;;;;;14.28;95.31;100058.03;4775734;29;20332;-87
2022/07/23 08:18:04;;;;;;;;;;;;;;;;;;;;;
2022/07/23 08:21:10;;;;;;;;;;;;;;;;;;;;;
2022/07/23 08:24:47;;;;;;;;;;;;;;;;;;;;;
2022/07/23 08:27:46;;;;;;;5.43;1.20;;;;;;;14.11;95.69;100013.97;4845000;29;20598;-91
2022/07/23 08:39:30;;;;;;;4.57;1.23;;;;;;;14.03;95.60;100064.16;4773231;29;20493;-90
2022/07/23 08:42:19;;;;;;;200.13;125.33;;;;;;;14.13;96.16;100057.69;4846366;29;20287;-89
2022/07/23 08:45:17;;;;;;;13.53;6.33;;;;;;;13.47;96.24;99964.47;4897010;29;20630;-91
2022/07/23 08:48:02;;;;;;;3.90;2.53;;;;;;;13.70;96.36;99995.22;4923987;29;20350;-91
2022/07/23 08:50:36;;;;;;;6.67;1.20;;;;;;;14.19;96.21;100067.97;4942435;29;20655;-91
2022/07/23 08:53:47;;;;;;;;;;;;;;;;;;;;;
2022/07/23 08:56:47;;;;;;;5.40;1.10;;;;;;;14.40;96.15;100097.03;4940217;29;20362;-88
2022/07/23 08:59:32;;;;;;;;;;;;;;;;;;;;;
2022/07/23 09:02:09;;;;;;;3.23;0.83;;;;;;;14.12;95.67;100049.84;4940274;29;20362;-91
2022/07/23 09:05:32;;;;;;;;;;;;;;;;;;;;;
2022/07/23 09:08:28;;;;;;;4.30;0.80;;;;;;;13.64;95.38;99985.78;4847511;29;20412;-91
2022/07/23 09:14:01;;;;;;;5.33;1.00;;;;;;;13.66;95.04;99977.88;4882595;29;20360;-89
2022/07/23 09:16:35;;;;;;;5.72;2.40;;;;;;;14.32;95.45;100093.81;4902199;29;20616;-92
2022/07/23 09:19:08;;;;;;;3.93;1.07;;;;;;;14.05;95.14;100045.69;4903482;29;20089;-88
2022/07/23 09:21:39;;;;;;;0.90;0.40;;;;;;;14.00;95.11;100045.84;4903741;29;20293;-89
2022/07/23 09:24:16;;;;;;;1.67;0.60;;;;;;;14.10;94.98;100052.50;4903691;29;20332;-88
2022/07/23 09:30:11;;;;;;;4.80;0.50;;;;;;;13.71;94.78;99971.53;4903006;29;20328;-89
2022/07/23 09:33:04;;;;;;;9.80;0.80;;;;;;;14.28;94.42;100065.91;4902434;29;20363;-89
2022/07/23 09:35:53;;;;;;;5.20;0.63;;;;;;;14.37;94.33;100089.25;4919170;29;20651;-88
2022/07/23 09:38:24;;;;;;;14.80;6.33;;;;;;;13.91;94.63;100014.66;4940483;29;20495;-89
2022/07/23 09:41:08;;;;;;;41.27;18.77;;;;;;;14.37;95.10;100094.53;4943565;29;20304;-89
2022/07/23 09:43:39;;;;;;;14.17;6.33;;;;;;;14.19;95.13;100094.25;4943128;29;20306;-87
2022/07/23 09:46:23;;;;;;;5.73;3.10;;;;;;;13.73;95.97;100006.50;4943068;29;20303;-88
2022/07/23 09:48:59;;;;;;;6.20;1.23;;;;;;;13.82;96.41;100047.31;4943412;29;20287;-88
2022/07/23 09:51:36;;;;;;;8.80;1.50;;;;;;;13.42;97.00;100000.53;4943065;29;20311;-87
2022/07/23 09:54:07;;;;;;;2.77;1.43;;;;;;;14.01;97.16;100087.84;4931942;29;20288;-88
2022/07/23 09:56:39;;;;;;;2.37;1.00;;;;;;;14.04;97.40;100110.53;4943218;29;20314;-87
2022/07/23 09:59:11;;;;;;;2.77;0.80;;;;;;;13.90;98.05;100118.00;4943239;29;20303;-89
2022/07/23 10:01:43;;;;;;;2.93;1.03;;;;;;;13.82;98.96;100105.97;4943363;29;20375;-89
2022/07/23 10:04:19;;;;;;;2.70;0.97;;;;;;;13.59;98.93;100079.59;4943420;29;20610;-89
2022/07/23 10:06:52;;;;;;;4.40;1.10;;;;;;;13.72;99.57;100109.78;4943383;29;20638;-87
2022/07/23 10:09:29;;;;;;;4.33;1.10;;;;;;;13.56;100.00;100092.81;4943361;29;20288;-89
2022/07/23 10:12:09;;;;;;;6.77;1.40;;;;;;;13.63;100.00;100110.09;4938253;29;20646;-90
2022/07/23 10:14:41;;;;;;;7.30;1.20;;;;;;;13.20;100.00;100040.50;4930015;29;20309;-89
2022/07/23 10:17:16;;;;;;;2.80;1.27;;;;;;;13.63;100.00;100117.97;4942985;29;20295;-89
2022/07/23 10:19:52;;;;;;;2.70;1.30;;;;;;;13.60;100.00;100120.66;4942930;29;20484;-89
2022/07/23 10:22:26;;;;;;;2.27;1.23;;;;;;;13.55;100.00;100125.22;4942971;29;20292;-90
2022/07/23 10:25:20;;;;;;;3.20;1.00;;;;;;;13.04;100.00;100047.16;4945245;29;20347;-88
2022/07/23 10:28:27;;;;;;;1.47;1.10;;;;;;;13.46;100.00;100117.63;4941345;29;20335;-90
2022/07/23 10:31:05;;;;;;;2.20;1.10;;;;;;;13.48;100.00;100126.28;4944993;29;20311;-89
2022/07/23 10:33:58;;;;;;;3.17;1.20;;;;;;;12.76;100.00;100000.78;4943728;29;20516;-90
2022/07/23 10:36:41;;;;;;;3.80;1.13;;;;;;;13.45;100.00;100110.66;4945993;29;20288;-89
2022/07/23 10:39:21;;;;;;;1.75;1.23;;;;;;;13.43;100.00;100112.47;4946062;29;20296;-89
2022/07/23 10:42:10;;;;;;;;;;;;;;;13.46;100.00;100117.63;4946515;29;20358;-90
2022/07/23 10:44:45;;;;;;;7.38;1.48;;;;;;;13.41;100.00;100114.28;4945832;29;19927;-88
2022/07/23 10:47:41;;;;;;;2.65;1.20;;;;;;;13.40;100.00;100131.78;4945821;29;20055;-89
2022/07/23 10:51:08;;;;;;;9.87;1.10;;;;;;;13.13;100.00;100083.59;4944729;29;20056;-89
2022/07/23 10:54:01;;;;;;;1.42;0.98;;;;;;;13.32;100.00;100132.00;4945575;29;20295;-87
2022/07/23 10:57:06;;;;;;;;;;;;;;;13.35;100.00;100142.44;4945872;29;20057;-88
2022/07/23 11:00:13;;;;;;;2.42;1.10;;;;;;;13.34;100.00;100139.84;4944303;29;19927;-87
2022/07/23 11:02:46;;;;;;;3.38;1.20;;;;;;;13.12;100.00;100119.44;4945470;29;20087;-86
2022/07/23 11:05:19;;;;;;;1.67;1.00;;;;;;;13.31;100.00;100156.53;4945747;29;20074;-84
2022/07/23 11:08:16;;;;;;;1.27;1.05;;;;;;;13.32;100.00;100144.28;4945111;29;20060;-92
2022/07/23 11:11:53;;;;;;;;;;;;;;;;;;;;;
2022/07/23 11:15:12;;;;;;;3.15;1.15;;;;;;;12.64;100.00;100048.31;4854180;29;20053;-93
2022/07/23 11:18:35;;;;;;;;;;;;;;;;;;;;;
2022/07/23 11:22:03;;;;;;;;;;;;;;;;;;;;;
2022/07/23 11:25:05;;;;;;;3.08;0.85;;;;;;;12.63;100.00;100009.88;4765315;30;20362;-90
2022/07/23 11:28:26;;;;;;;3.42;0.98;;;;;;;12.75;100.00;100040.97;4795123;29;20078;-90
2022/07/23 11:31:17;;;;;;;2.42;0.93;;;;;;;13.37;100.00;100145.84;4795094;30;20472;-90
2022/07/23 11:37:59;;;;;;;3.15;0.90;;;;;;;12.71;100.00;100028.88;4787053;29;20059;-91
2022/07/23 11:41:21;;;;;;;2.85;0.90;;;;;;;12.44;100.00;99999.06;4784349;30;20424;-91
2022/07/23 11:43:56;;;;;;;2.40;1.00;;;;;;;13.23;100.00;100121.78;4766919;29;20064;-90
2022/07/23 11:46:33;;;;;;;1.83;1.00;;;;;;;13.44;100.00;100143.06;4877451;29;20048;-90
2022/07/23 11:49:06;;;;;;;1.33;1.13;;;;;;;13.55;100.00;100130.47;4904729;29;20056;-90
2022/07/23 11:51:44;;;;;;;0.93;0.73;;;;;;;13.33;100.00;100086.50;4904652;29;20056;-91
2022/07/23 11:54:21;;;;;;;1.05;0.80;;;;;;;13.17;100.00;100079.97;4904646;29;20053;-91
2022/07/23 11:56:58;;;;;;;2.88;0.95;;;;;;;13.49;100.00;100114.91;4932061;29;20075;-92
2022/07/23 12:02:33;;;;;;;1.80;0.80;;;;;;;13.05;100.00;100027.88;4944281;29;20044;-90
2022/07/23 12:05:31;;;;;;;1.08;0.70;;;;;;;13.13;100.00;100057.38;4923698;29;20321;-90
2022/07/23 12:08:03;;;;;;;1.08;0.70;;;;;;;13.31;100.00;100104.06;4944576;29;20220;-90
2022/07/23 12:10:37;;;;;;;1.17;0.90;;;;;;;13.40;100.00;100117.81;4944539;29;20047;-90
2022/07/23 12:13:10;;;;;;;0.95;0.80;;;;;;;13.42;100.00;100121.25;4944351;29;20110;-91
2022/07/23 12:15:45;;;;;;;1.00;0.80;;;;;;;13.41;100.00;100119.53;4944381;29;20054;-90
2022/07/23 12:18:18;;;;;;;0.77;0.70;;;;;;;13.48;100.00;100115.78;4944598;29;20455;-89
2022/07/23 12:20:53;;;;;;;3.03;1.10;;;;;;;13.33;100.00;100107.50;4944056;29;20044;-90
2022/07/23 12:23:29;;;;;;;1.17;0.80;;;;;;;12.88;100.00;100039.75;4944101;29;20044;-90
2022/07/23 12:26:06;;;;;;;1.75;1.10;;;;;;;13.37;100.00;100117.00;4944307;29;20090;-88
2022/07/23 12:28:39;;;;;;;1.08;1.00;;;;;;;13.40;100.00;100121.28;4944011;29;20355;-91
2022/07/23 12:31:16;;;;;;;2.05;0.98;;;;;;;13.36;100.00;100107.41;4943851;29;20577;-90
2022/07/23 12:33:50;;;;;;;4.63;1.25;;;;;;;13.38;100.00;100116.09;4943954;29;20073;-90
2022/07/23 12:36:39;;;;;;;1.95;1.13;;;;;;;13.35;100.00;100120.56;4943402;29;20119;-90
2022/07/23 12:39:11;;;;;;;1.50;1.20;;;;;;;13.33;100.00;100115.38;4943939;29;20062;-90
2022/07/23 12:42:12;;;;;;;1.98;1.13;;;;;;;13.04;100.00;100061.13;4943838;29;20134;-90
2022/07/23 12:45:51;;;;;;;;;;;;;;;;;;;;;
2022/07/23 12:48:53;;;;;;;;;;;;;;;;;;;;;
2022/07/23 12:52:29;;;;;;;;;;;;;;;;;;;;;
2022/07/23 12:55:37;;;;;;;2.22;1.50;;;;;;;12.41;100.00;99984.28;4845018;29;20076;-91
2022/07/23 12:59:19;;;;;;;2.28;1.63;;;;;;;13.09;100.00;100087.22;4808253;29;20060;-90
2022/07/23 13:02:23;;;;;;;2.22;1.60;;;;;;;12.82;100.00;100037.28;4752133;30;20075;-90
2022/07/23 13:05:37;;;;;;;;;;;;;;;;;;;;;
2022/07/23 13:08:16;;;;;;;2.10;1.70;;;;;;;13.10;100.00;100088.91;4767358;30;20079;-89
2022/07/23 13:11:01;;;;;;;;;;;;;;;;;;;;;
2022/07/23 13:13:37;;;;;;;3.22;1.92;;;;;;;13.12;100.00;100095.84;4775290;30;20347;-89
2022/07/23 13:16:10;;;;;;;3.58;2.25;;;;;;;13.14;100.00;100095.81;4775410;30;20109;-87
2022/07/23 13:18:41;;;;;;;2.95;2.05;;;;;;;13.12;100.00;100097.59;4775255;30;20083;-86
2022/07/23 13:21:14;;;;;;;5.10;2.50;;;;;;;12.70;100.00;100028.03;4851837;29;20165;-87
2022/07/23 13:23:52;;;;;;;5.40;2.63;;;;;;;13.11;100.00;100090.66;4889350;29;20081;-81
2022/07/23 13:26:23;;;;;;;3.78;2.38;;;;;;;13.00;100.00;100079.59;4943407;29;20056;-79
2022/07/23 13:28:54;;;;;;;4.10;2.35;;;;;;;13.06;100.00;100087.31;4943187;29;20059;-82
2022/07/23 13:31:31;;;;;;;3.60;2.20;;;;;;;13.07;100.00;100094.25;4943449;29;20060;-81
2022/07/23 13:34:02;;;;;;;3.80;2.40;;;;;;;13.02;100.00;100075.19;4943358;29;20055;-82